Weather at Mc David Honda Heliport

Public forecast

Using degrees Fahrenheit for public forecast. Weather courtesy of forecast.io.

Closest aviation weather report (METAR) to Mc David Honda Heliport

Closest report is Dallas Fort Worth International Airport, 4.9 nm (9.1 km) NW.

2024/06/19 06:53 (retrieved 55 minutes ago)

KDFW 190653Z 15007KT 10SM FEW026 26/21 A2994 RMK AO2 SLP128 T02560211

Closest aviation forecast (TAF) to Mc David Honda Heliport

Closest forecast is Dallas Fort Worth International Airport, 4.9 nm (9.1 km) NW.

2024/06/19 06:22 (retrieved 1 hour ago)

TAF KDFW 190520Z 1906/2012 14016KT P6SM FEW035 SCT250 FM191100 10010KT P6SM BKN035 FM191600 09011KT P6SM SCT090 BKN250